sensor_id;sensor_type;location;lat;lon;timestamp;temperature;humidity
20712;DHT22;10517;50.742;4.224;2023-04-25T00:02:10;8.70;99.90
20712;DHT22;10517;50.742;4.224;2023-04-25T00:04:36;8.70;99.90
20712;DHT22;10517;50.742;4.224;2023-04-25T00:07:03;8.80;99.90
20712;DHT22;10517;50.742;4.224;2023-04-25T00:09:29;8.80;99.90
20712;DHT22;10517;50.742;4.224;2023-04-25T00:11:55;8.90;99.90
20712;DHT22;10517;50.742;4.224;2023-04-25T00:14:21;8.80;99.90
20712;DHT22;10517;50.742;4.224;2023-04-25T00:16:47;8.90;99.90
20712;DHT22;10517;50.742;4.224;2023-04-25T00:19:13;8.80;99.90
20712;DHT22;10517;50.742;4.224;2023-04-25T00:21:39;8.70;99.90
20712;DHT22;10517;50.742;4.224;2023-04-25T00:24:08;8.70;99.90
20712;DHT22;10517;50.742;4.224;2023-04-25T00:26:34;8.80;99.90
20712;DHT22;10517;50.742;4.224;2023-04-25T00:29:00;8.80;99.90
20712;DHT22;10517;50.742;4.224;2023-04-25T00:31:26;8.80;99.90
20712;DHT22;10517;50.742;4.224;2023-04-25T00:33:52;8.90;99.90
20712;DHT22;10517;50.742;4.224;2023-04-25T00:36:18;8.90;99.90
20712;DHT22;10517;50.742;4.224;2023-04-25T00:38:44;8.90;99.90
20712;DHT22;10517;50.742;4.224;2023-04-25T00:41:10;8.80;99.90
20712;DHT22;10517;50.742;4.224;2023-04-25T00:43:36;8.70;99.90
20712;DHT22;10517;50.742;4.224;2023-04-25T00:46:02;8.70;99.90
20712;DHT22;10517;50.742;4.224;2023-04-25T00:48:28;8.60;99.90
20712;DHT22;10517;50.742;4.224;2023-04-25T00:50:59;8.50;99.90
20712;DHT22;10517;50.742;4.224;2023-04-25T00:53:26;8.60;99.90
20712;DHT22;10517;50.742;4.224;2023-04-25T00:55:53;8.60;99.90
20712;DHT22;10517;50.742;4.224;2023-04-25T00:58:20;8.60;99.90
20712;DHT22;10517;50.742;4.224;2023-04-25T01:00:48;8.50;99.90
20712;DHT22;10517;50.742;4.224;2023-04-25T01:03:15;8.50;99.90
20712;DHT22;10517;50.742;4.224;2023-04-25T01:05:46;8.40;99.90
20712;DHT22;10517;50.742;4.224;2023-04-25T01:08:12;8.30;99.90
20712;DHT22;10517;50.742;4.224;2023-04-25T01:10:38;8.20;99.90
20712;DHT22;10517;50.742;4.224;2023-04-25T01:13:04;8.20;99.90
20712;DHT22;10517;50.742;4.224;2023-04-25T01:15:30;8.20;99.90
20712;DHT22;10517;50.742;4.224;2023-04-25T01:17:56;8.10;99.90
20712;DHT22;10517;50.742;4.224;2023-04-25T01:20:22;8.10;99.90
20712;DHT22;10517;50.742;4.224;2023-04-25T01:22:49;8.10;99.90
20712;DHT22;10517;50.742;4.224;2023-04-25T01:25:15;8.00;99.90
20712;DHT22;10517;50.742;4.224;2023-04-25T01:27:42;8.00;99.90
20712;DHT22;10517;50.742;4.224;2023-04-25T01:30:08;8.00;99.90
20712;DHT22;10517;50.742;4.224;2023-04-25T01:32:34;7.90;99.90
20712;DHT22;10517;50.742;4.224;2023-04-25T01:35:09;8.00;99.90
20712;DHT22;10517;50.742;4.224;2023-04-25T01:37:42;7.90;99.90
20712;DHT22;10517;50.742;4.224;2023-04-25T01:40:09;7.90;99.90
20712;DHT22;10517;50.742;4.224;2023-04-25T01:42:37;7.90;99.90
20712;DHT22;10517;50.742;4.224;2023-04-25T01:45:04;7.90;99.90
20712;DHT22;10517;50.742;4.224;2023-04-25T01:47:30;8.00;99.90
20712;DHT22;10517;50.742;4.224;2023-04-25T01:49:56;7.90;99.90
20712;DHT22;10517;50.742;4.224;2023-04-25T01:52:21;7.90;99.90
20712;DHT22;10517;50.742;4.224;2023-04-25T01:54:47;7.90;99.90
20712;DHT22;10517;50.742;4.224;2023-04-25T01:57:14;7.90;99.90
20712;DHT22;10517;50.742;4.224;2023-04-25T01:59:41;7.90;99.90
20712;DHT22;10517;50.742;4.224;2023-04-25T02:02:07;8.00;99.90
20712;DHT22;10517;50.742;4.224;2023-04-25T02:04:33;8.00;99.90
20712;DHT22;10517;50.742;4.224;2023-04-25T02:06:58;8.10;99.90
20712;DHT22;10517;50.742;4.224;2023-04-25T02:09:24;8.00;99.90
20712;DHT22;10517;50.742;4.224;2023-04-25T02:11:50;8.00;99.90
20712;DHT22;10517;50.742;4.224;2023-04-25T02:14:16;8.00;99.90
20712;DHT22;10517;50.742;4.224;2023-04-25T02:16:41;8.00;99.90
20712;DHT22;10517;50.742;4.224;2023-04-25T02:19:09;8.10;99.90
20712;DHT22;10517;50.742;4.224;2023-04-25T02:21:36;8.00;99.90
20712;DHT22;10517;50.742;4.224;2023-04-25T02:24:02;8.00;99.90
20712;DHT22;10517;50.742;4.224;2023-04-25T02:26:28;7.90;99.90
20712;DHT22;10517;50.742;4.224;2023-04-25T02:28:53;7.90;99.90
20712;DHT22;10517;50.742;4.224;2023-04-25T02:31:19;8.00;99.90
20712;DHT22;10517;50.742;4.224;2023-04-25T02:33:45;7.90;99.90
20712;DHT22;10517;50.742;4.224;2023-04-25T02:36:10;7.90;99.90
20712;DHT22;10517;50.742;4.224;2023-04-25T02:38:36;7.90;99.90
20712;DHT22;10517;50.742;4.224;2023-04-25T02:41:02;8.00;99.90
20712;DHT22;10517;50.742;4.224;2023-04-25T02:43:27;8.10;99.90
20712;DHT22;10517;50.742;4.224;2023-04-25T02:45:53;8.10;99.90
20712;DHT22;10517;50.742;4.224;2023-04-25T02:48:19;8.20;99.90
20712;DHT22;10517;50.742;4.224;2023-04-25T02:50:44;8.30;99.90
20712;DHT22;10517;50.742;4.224;2023-04-25T02:53:10;8.20;99.90
20712;DHT22;10517;50.742;4.224;2023-04-25T02:55:36;8.30;99.90
20712;DHT22;10517;50.742;4.224;2023-04-25T02:58:01;8.30;99.90
20712;DHT22;10517;50.742;4.224;2023-04-25T03:00:27;8.40;99.90
20712;DHT22;10517;50.742;4.224;2023-04-25T03:02:53;8.30;99.90
20712;DHT22;10517;50.742;4.224;2023-04-25T03:05:18;8.30;99.90
20712;DHT22;10517;50.742;4.224;2023-04-25T03:07:44;8.30;99.90
20712;DHT22;10517;50.742;4.224;2023-04-25T03:10:11;8.10;99.90
20712;DHT22;10517;50.742;4.224;2023-04-25T03:12:37;8.10;99.90
20712;DHT22;10517;50.742;4.224;2023-04-25T03:15:03;8.00;99.90
20712;DHT22;10517;50.742;4.224;2023-04-25T03:17:29;8.00;99.90
20712;DHT22;10517;50.742;4.224;2023-04-25T03:19:55;8.10;99.90
20712;DHT22;10517;50.742;4.224;2023-04-25T03:22:21;8.10;99.90
20712;DHT22;10517;50.742;4.224;2023-04-25T03:24:47;8.10;99.90
20712;DHT22;10517;50.742;4.224;2023-04-25T03:27:13;8.20;99.90
20712;DHT22;10517;50.742;4.224;2023-04-25T03:29:39;8.10;99.90
20712;DHT22;10517;50.742;4.224;2023-04-25T03:32:06;8.00;99.90
20712;DHT22;10517;50.742;4.224;2023-04-25T03:34:31;8.00;99.90
20712;DHT22;10517;50.742;4.224;2023-04-25T03:36:57;7.90;99.90
20712;DHT22;10517;50.742;4.224;2023-04-25T03:39:22;7.80;99.90
20712;DHT22;10517;50.742;4.224;2023-04-25T03:41:48;7.80;99.90
20712;DHT22;10517;50.742;4.224;2023-04-25T03:44:14;7.80;99.90
20712;DHT22;10517;50.742;4.224;2023-04-25T03:46:40;7.70;99.90
20712;DHT22;10517;50.742;4.224;2023-04-25T03:49:05;7.60;99.90
20712;DHT22;10517;50.742;4.224;2023-04-25T03:51:31;7.60;99.90
20712;DHT22;10517;50.742;4.224;2023-04-25T03:53:57;7.50;99.90
20712;DHT22;10517;50.742;4.224;2023-04-25T03:56:22;7.40;99.90
20712;DHT22;10517;50.742;4.224;2023-04-25T03:58:48;7.40;99.90
20712;DHT22;10517;50.742;4.224;2023-04-25T04:01:14;7.40;99.90
20712;DHT22;10517;50.742;4.224;2023-04-25T04:03:39;7.40;99.90
20712;DHT22;10517;50.742;4.224;2023-04-25T04:06:06;7.30;99.90
20712;DHT22;10517;50.742;4.224;2023-04-25T04:08:32;7.40;99.90
20712;DHT22;10517;50.742;4.224;2023-04-25T04:10:58;7.40;99.90
20712;DHT22;10517;50.742;4.224;2023-04-25T04:13:28;7.40;99.90
20712;DHT22;10517;50.742;4.224;2023-04-25T04:15:54;7.50;99.90
20712;DHT22;10517;50.742;4.224;2023-04-25T04:18:20;7.50;99.90
20712;DHT22;10517;50.742;4.224;2023-04-25T04:20:46;7.50;99.90
20712;DHT22;10517;50.742;4.224;2023-04-25T04:23:12;7.60;99.90
20712;DHT22;10517;50.742;4.224;2023-04-25T04:25:38;7.60;99.90
20712;DHT22;10517;50.742;4.224;2023-04-25T04:28:05;7.60;99.90
20712;DHT22;10517;50.742;4.224;2023-04-25T04:30:31;7.60;99.90
20712;DHT22;10517;50.742;4.224;2023-04-25T04:32:59;7.60;99.90
20712;DHT22;10517;50.742;4.224;2023-04-25T04:35:26;7.60;99.90
20712;DHT22;10517;50.742;4.224;2023-04-25T04:37:52;7.50;99.90
20712;DHT22;10517;50.742;4.224;2023-04-25T04:40:17;7.50;99.90
20712;DHT22;10517;50.742;4.224;2023-04-25T04:42:44;7.40;99.90
20712;DHT22;10517;50.742;4.224;2023-04-25T04:45:11;7.50;99.90
20712;DHT22;10517;50.742;4.224;2023-04-25T04:47:38;7.50;99.90
20712;DHT22;10517;50.742;4.224;2023-04-25T04:50:06;7.50;99.90
20712;DHT22;10517;50.742;4.224;2023-04-25T04:52:32;7.60;99.90
20712;DHT22;10517;50.742;4.224;2023-04-25T04:54:58;7.60;99.90
20712;DHT22;10517;50.742;4.224;2023-04-25T04:57:23;7.60;99.90
20712;DHT22;10517;50.742;4.224;2023-04-25T04:59:49;7.50;99.90
20712;DHT22;10517;50.742;4.224;2023-04-25T05:02:15;7.50;99.90
20712;DHT22;10517;50.742;4.224;2023-04-25T05:04:41;7.50;99.90
20712;DHT22;10517;50.742;4.224;2023-04-25T05:07:06;7.40;99.90
20712;DHT22;10517;50.742;4.224;2023-04-25T05:09:32;7.40;99.90
20712;DHT22;10517;50.742;4.224;2023-04-25T05:11:58;7.40;99.90
20712;DHT22;10517;50.742;4.224;2023-04-25T05:14:23;7.40;99.90
20712;DHT22;10517;50.742;4.224;2023-04-25T05:16:49;7.30;99.90
20712;DHT22;10517;50.742;4.224;2023-04-25T05:19:15;7.20;99.90
20712;DHT22;10517;50.742;4.224;2023-04-25T05:21:40;7.20;99.90
20712;DHT22;10517;50.742;4.224;2023-04-25T05:24:06;7.20;99.90
20712;DHT22;10517;50.742;4.224;2023-04-25T05:26:32;7.20;99.90
20712;DHT22;10517;50.742;4.224;2023-04-25T05:28:58;7.30;99.90
20712;DHT22;10517;50.742;4.224;2023-04-25T05:31:23;7.40;99.90
20712;DHT22;10517;50.742;4.224;2023-04-25T05:33:49;7.50;99.90
20712;DHT22;10517;50.742;4.224;2023-04-25T05:36:15;7.50;99.90
20712;DHT22;10517;50.742;4.224;2023-04-25T05:38:40;7.50;99.90
20712;DHT22;10517;50.742;4.224;2023-04-25T05:41:06;7.60;99.90
20712;DHT22;10517;50.742;4.224;2023-04-25T05:43:32;7.50;99.90
20712;DHT22;10517;50.742;4.224;2023-04-25T05:45:58;7.60;99.90
20712;DHT22;10517;50.742;4.224;2023-04-25T05:48:24;7.70;99.90
20712;DHT22;10517;50.742;4.224;2023-04-25T05:50:50;7.80;99.90
20712;DHT22;10517;50.742;4.224;2023-04-25T05:53:17;7.80;99.90
20712;DHT22;10517;50.742;4.224;2023-04-25T05:55:42;7.80;99.90
20712;DHT22;10517;50.742;4.224;2023-04-25T05:58:08;7.70;99.90
20712;DHT22;10517;50.742;4.224;2023-04-25T06:00:34;7.80;99.90
20712;DHT22;10517;50.742;4.224;2023-04-25T06:02:59;7.80;99.90
20712;DHT22;10517;50.742;4.224;2023-04-25T06:05:25;7.80;99.90
20712;DHT22;10517;50.742;4.224;2023-04-25T06:07:51;7.90;99.90
20712;DHT22;10517;50.742;4.224;2023-04-25T06:10:16;8.10;99.90
20712;DHT22;10517;50.742;4.224;2023-04-25T06:12:42;8.10;99.90
20712;DHT22;10517;50.742;4.224;2023-04-25T06:15:08;8.20;99.90
20712;DHT22;10517;50.742;4.224;2023-04-25T06:17:35;8.30;99.90
20712;DHT22;10517;50.742;4.224;2023-04-25T06:20:00;8.20;99.90
20712;DHT22;10517;50.742;4.224;2023-04-25T06:22:27;8.20;99.90
20712;DHT22;10517;50.742;4.224;2023-04-25T06:24:52;8.20;99.90
20712;DHT22;10517;50.742;4.224;2023-04-25T06:27:18;8.20;99.90
20712;DHT22;10517;50.742;4.224;2023-04-25T06:29:43;8.20;99.90
20712;DHT22;10517;50.742;4.224;2023-04-25T06:32:09;8.20;99.90
20712;DHT22;10517;50.742;4.224;2023-04-25T06:34:35;8.30;99.90
20712;DHT22;10517;50.742;4.224;2023-04-25T06:37:00;8.30;99.90
20712;DHT22;10517;50.742;4.224;2023-04-25T06:39:26;8.30;99.90
20712;DHT22;10517;50.742;4.224;2023-04-25T06:41:52;8.30;99.90
20712;DHT22;10517;50.742;4.224;2023-04-25T06:44:18;8.30;99.90
20712;DHT22;10517;50.742;4.224;2023-04-25T06:46:44;8.30;99.90
20712;DHT22;10517;50.742;4.224;2023-04-25T06:49:10;8.40;99.90
20712;DHT22;10517;50.742;4.224;2023-04-25T06:51:35;8.60;99.90
20712;DHT22;10517;50.742;4.224;2023-04-25T06:54:01;8.70;99.90
20712;DHT22;10517;50.742;4.224;2023-04-25T06:56:28;8.70;99.90
20712;DHT22;10517;50.742;4.224;2023-04-25T06:58:55;8.90;99.90
20712;DHT22;10517;50.742;4.224;2023-04-25T07:01:20;8.90;99.90
20712;DHT22;10517;50.742;4.224;2023-04-25T07:03:46;8.90;99.90
20712;DHT22;10517;50.742;4.224;2023-04-25T07:06:11;8.90;99.90
20712;DHT22;10517;50.742;4.224;2023-04-25T07:08:37;9.00;99.90
20712;DHT22;10517;50.742;4.224;2023-04-25T07:11:03;9.00;99.90
20712;DHT22;10517;50.742;4.224;2023-04-25T07:13:28;9.00;99.90
20712;DHT22;10517;50.742;4.224;2023-04-25T07:15:54;8.90;99.90
20712;DHT22;10517;50.742;4.224;2023-04-25T07:18:20;8.90;99.90
20712;DHT22;10517;50.742;4.224;2023-04-25T07:20:45;9.10;99.90
20712;DHT22;10517;50.742;4.224;2023-04-25T07:23:11;9.10;99.90
20712;DHT22;10517;50.742;4.224;2023-04-25T07:25:37;9.20;99.90
20712;DHT22;10517;50.742;4.224;2023-04-25T07:28:02;9.30;99.90
20712;DHT22;10517;50.742;4.224;2023-04-25T07:30:28;9.30;99.90
20712;DHT22;10517;50.742;4.224;2023-04-25T07:32:53;9.40;99.90
20712;DHT22;10517;50.742;4.224;2023-04-25T07:35:19;9.30;99.90
20712;DHT22;10517;50.742;4.224;2023-04-25T07:37:45;9.30;99.90
20712;DHT22;10517;50.742;4.224;2023-04-25T07:40:11;9.40;99.90
20712;DHT22;10517;50.742;4.224;2023-04-25T07:42:37;9.50;99.90
20712;DHT22;10517;50.742;4.224;2023-04-25T07:45:02;9.70;99.90
20712;DHT22;10517;50.742;4.224;2023-04-25T07:47:28;9.60;99.90
20712;DHT22;10517;50.742;4.224;2023-04-25T07:49:54;9.40;99.90
20712;DHT22;10517;50.742;4.224;2023-04-25T07:52:20;9.30;99.90
20712;DHT22;10517;50.742;4.224;2023-04-25T07:54:46;9.20;99.90
20712;DHT22;10517;50.742;4.224;2023-04-25T07:57:12;9.30;99.90
20712;DHT22;10517;50.742;4.224;2023-04-25T07:59:39;9.30;99.90
20712;DHT22;10517;50.742;4.224;2023-04-25T08:02:05;9.50;99.90
20712;DHT22;10517;50.742;4.224;2023-04-25T08:04:31;9.70;99.90
20712;DHT22;10517;50.742;4.224;2023-04-25T08:06:56;9.40;99.90
20712;DHT22;10517;50.742;4.224;2023-04-25T08:09:22;9.20;99.90
20712;DHT22;10517;50.742;4.224;2023-04-25T08:11:48;9.10;99.90
20712;DHT22;10517;50.742;4.224;2023-04-25T08:14:14;9.10;99.90
20712;DHT22;10517;50.742;4.224;2023-04-25T08:16:39;9.30;99.90
20712;DHT22;10517;50.742;4.224;2023-04-25T08:19:05;9.40;99.90
20712;DHT22;10517;50.742;4.224;2023-04-25T08:21:31;9.40;99.90
20712;DHT22;10517;50.742;4.224;2023-04-25T08:23:58;9.50;99.90
20712;DHT22;10517;50.742;4.224;2023-04-25T08:26:26;9.70;99.90
20712;DHT22;10517;50.742;4.224;2023-04-25T08:28:52;9.70;99.90
20712;DHT22;10517;50.742;4.224;2023-04-25T08:31:20;9.80;99.90
20712;DHT22;10517;50.742;4.224;2023-04-25T08:33:46;9.90;99.90
20712;DHT22;10517;50.742;4.224;2023-04-25T08:36:12;9.80;99.90
20712;DHT22;10517;50.742;4.224;2023-04-25T08:38:38;9.80;99.90
20712;DHT22;10517;50.742;4.224;2023-04-25T08:41:05;9.50;99.90
20712;DHT22;10517;50.742;4.224;2023-04-25T08:43:32;9.40;99.90
20712;DHT22;10517;50.742;4.224;2023-04-25T08:46:01;9.40;99.90
20712;DHT22;10517;50.742;4.224;2023-04-25T08:48:27;9.50;99.90
20712;DHT22;10517;50.742;4.224;2023-04-25T08:50:55;9.60;99.90
20712;DHT22;10517;50.742;4.224;2023-04-25T08:53:25;9.50;99.90
20712;DHT22;10517;50.742;4.224;2023-04-25T08:55:55;9.60;99.90
20712;DHT22;10517;50.742;4.224;2023-04-25T08:58:21;10.10;99.90
20712;DHT22;10517;50.742;4.224;2023-04-25T09:00:48;10.40;99.90
20712;DHT22;10517;50.742;4.224;2023-04-25T09:03:15;10.20;99.90
20712;DHT22;10517;50.742;4.224;2023-04-25T09:05:41;10.00;99.90
20712;DHT22;10517;50.742;4.224;2023-04-25T09:08:07;9.90;99.90
20712;DHT22;10517;50.742;4.224;2023-04-25T09:10:33;10.00;99.90
20712;DHT22;10517;50.742;4.224;2023-04-25T09:15:32;10.80;99.90
20712;DHT22;10517;50.742;4.224;2023-04-25T09:17:58;10.60;99.90
20712;DHT22;10517;50.742;4.224;2023-04-25T09:20:24;10.40;99.90
20712;DHT22;10517;50.742;4.224;2023-04-25T09:23:04;10.40;99.90
20712;DHT22;10517;50.742;4.224;2023-04-25T09:25:35;10.40;99.90
20712;DHT22;10517;50.742;4.224;2023-04-25T09:28:04;10.40;99.90
20712;DHT22;10517;50.742;4.224;2023-04-25T09:30:32;10.50;99.90
20712;DHT22;10517;50.742;4.224;2023-04-25T09:33:04;10.10;99.90
20712;DHT22;10517;50.742;4.224;2023-04-25T09:35:38;10.10;99.90
20712;DHT22;10517;50.742;4.224;2023-04-25T09:38:12;10.10;99.90
20712;DHT22;10517;50.742;4.224;2023-04-25T09:40:42;10.50;99.90
20712;DHT22;10517;50.742;4.224;2023-04-25T09:43:09;10.70;99.90
20712;DHT22;10517;50.742;4.224;2023-04-25T09:45:41;10.90;99.90
20712;DHT22;10517;50.742;4.224;2023-04-25T09:48:11;10.80;99.90
20712;DHT22;10517;50.742;4.224;2023-04-25T09:50:37;10.90;99.90
20712;DHT22;10517;50.742;4.224;2023-04-25T09:53:03;10.90;99.90
20712;DHT22;10517;50.742;4.224;2023-04-25T09:55:32;11.00;99.90
20712;DHT22;10517;50.742;4.224;2023-04-25T09:58:04;10.70;99.90
20712;DHT22;10517;50.742;4.224;2023-04-25T10:00:34;10.60;99.90
20712;DHT22;10517;50.742;4.224;2023-04-25T10:03:05;10.30;99.90
20712;DHT22;10517;50.742;4.224;2023-04-25T10:05:32;10.10;99.90
20712;DHT22;10517;50.742;4.224;2023-04-25T10:08:03;10.20;99.90
20712;DHT22;10517;50.742;4.224;2023-04-25T10:10:32;10.60;99.90
20712;DHT22;10517;50.742;4.224;2023-04-25T10:13:05;10.80;99.90
20712;DHT22;10517;50.742;4.224;2023-04-25T10:15:34;10.90;99.90
20712;DHT22;10517;50.742;4.224;2023-04-25T10:18:01;10.90;99.90
20712;DHT22;10517;50.742;4.224;2023-04-25T10:20:28;11.00;99.90
20712;DHT22;10517;50.742;4.224;2023-04-25T10:22:56;11.10;99.90
20712;DHT22;10517;50.742;4.224;2023-04-25T10:25:24;11.30;99.90
20712;DHT22;10517;50.742;4.224;2023-04-25T10:27:53;11.40;99.90
20712;DHT22;10517;50.742;4.224;2023-04-25T10:30:19;11.50;99.90
20712;DHT22;10517;50.742;4.224;2023-04-25T10:32:46;11.60;99.90
20712;DHT22;10517;50.742;4.224;2023-04-25T10:35:29;11.70;99.90
20712;DHT22;10517;50.742;4.224;2023-04-25T10:38:04;11.80;99.90
20712;DHT22;10517;50.742;4.224;2023-04-25T10:40:34;12.10;99.90
20712;DHT22;10517;50.742;4.224;2023-04-25T10:45:56;12.90;99.90
20712;DHT22;10517;50.742;4.224;2023-04-25T10:48:29;13.10;99.90
20712;DHT22;10517;50.742;4.224;2023-04-25T10:51:11;12.10;99.90
20712;DHT22;10517;50.742;4.224;2023-04-25T10:53:37;11.70;99.90
20712;DHT22;10517;50.742;4.224;2023-04-25T10:56:38;11.30;99.90
20712;DHT22;10517;50.742;4.224;2023-04-25T11:01:40;9.80;99.90
20712;DHT22;10517;50.742;4.224;2023-04-25T11:04:19;9.70;99.90
20712;DHT22;10517;50.742;4.224;2023-04-25T11:09:28;9.80;99.90
20712;DHT22;10517;50.742;4.224;2023-04-25T11:11:58;9.60;99.90
20712;DHT22;10517;50.742;4.224;2023-04-25T11:14:24;9.50;99.90
20712;DHT22;10517;50.742;4.224;2023-04-25T11:16:57;9.40;99.90
20712;DHT22;10517;50.742;4.224;2023-04-25T11:19:26;9.50;99.90
20712;DHT22;10517;50.742;4.224;2023-04-25T11:21:56;9.60;99.90
20712;DHT22;10517;50.742;4.224;2023-04-25T11:24:32;9.70;99.90
20712;DHT22;10517;50.742;4.224;2023-04-25T11:26:59;10.00;99.90
20712;DHT22;10517;50.742;4.224;2023-04-25T11:29:32;10.20;99.90
20712;DHT22;10517;50.742;4.224;2023-04-25T11:31:59;10.20;99.90
20712;DHT22;10517;50.742;4.224;2023-04-25T11:34:30;10.70;99.90
20712;DHT22;10517;50.742;4.224;2023-04-25T11:36:56;11.00;99.90
20712;DHT22;10517;50.742;4.224;2023-04-25T11:39:24;11.40;99.90
20712;DHT22;10517;50.742;4.224;2023-04-25T11:41:50;11.40;99.90
20712;DHT22;10517;50.742;4.224;2023-04-25T11:44:16;11.20;99.90
20712;DHT22;10517;50.742;4.224;2023-04-25T11:46:43;11.20;99.90
20712;DHT22;10517;50.742;4.224;2023-04-25T11:49:09;11.10;99.90
20712;DHT22;10517;50.742;4.224;2023-04-25T11:51:53;10.90;99.90
20712;DHT22;10517;50.742;4.224;2023-04-25T11:54:18;11.30;99.90
20712;DHT22;10517;50.742;4.224;2023-04-25T11:56:44;11.40;99.90
20712;DHT22;10517;50.742;4.224;2023-04-25T11:59:10;11.60;99.90
20712;DHT22;10517;50.742;4.224;2023-04-25T12:01:48;11.80;99.90
20712;DHT22;10517;50.742;4.224;2023-04-25T12:06:42;12.00;99.90
20712;DHT22;10517;50.742;4.224;2023-04-25T12:09:10;11.90;99.90
20712;DHT22;10517;50.742;4.224;2023-04-25T12:11:47;11.50;99.90
20712;DHT22;10517;50.742;4.224;2023-04-25T12:14:21;11.30;99.90
20712;DHT22;10517;50.742;4.224;2023-04-25T12:16:48;11.60;99.90
20712;DHT22;10517;50.742;4.224;2023-04-25T12:19:15;12.00;99.90
20712;DHT22;10517;50.742;4.224;2023-04-25T12:21:42;12.20;99.90
20712;DHT22;10517;50.742;4.224;2023-04-25T12:24:16;12.30;99.90
20712;DHT22;10517;50.742;4.224;2023-04-25T12:29:23;12.90;99.90
20712;DHT22;10517;50.742;4.224;2023-04-25T12:31:50;12.80;99.90
20712;DHT22;10517;50.742;4.224;2023-04-25T12:34:19;12.30;99.90
20712;DHT22;10517;50.742;4.224;2023-04-25T12:36:45;12.40;99.90
20712;DHT22;10517;50.742;4.224;2023-04-25T12:39:22;12.50;99.90
20712;DHT22;10517;50.742;4.224;2023-04-25T12:41:49;12.50;99.90
20712;DHT22;10517;50.742;4.224;2023-04-25T12:44:16;12.70;99.90
20712;DHT22;10517;50.742;4.224;2023-04-25T12:46:42;12.50;99.90
20712;DHT22;10517;50.742;4.224;2023-04-25T12:49:08;13.00;99.90
20712;DHT22;10517;50.742;4.224;2023-04-25T12:51:37;13.00;99.90
20712;DHT22;10517;50.742;4.224;2023-04-25T12:54:04;12.70;99.90
20712;DHT22;10517;50.742;4.224;2023-04-25T12:56:30;12.70;99.90
20712;DHT22;10517;50.742;4.224;2023-04-25T12:58:57;12.50;99.90
20712;DHT22;10517;50.742;4.224;2023-04-25T13:01:23;12.50;99.90
20712;DHT22;10517;50.742;4.224;2023-04-25T13:03:49;12.90;99.90
20712;DHT22;10517;50.742;4.224;2023-04-25T13:06:16;13.70;99.90
20712;DHT22;10517;50.742;4.224;2023-04-25T13:08:42;14.00;99.90
20712;DHT22;10517;50.742;4.224;2023-04-25T13:11:08;14.30;99.90
20712;DHT22;10517;50.742;4.224;2023-04-25T13:13:34;15.00;99.90
20712;DHT22;10517;50.742;4.224;2023-04-25T13:16:03;15.60;99.90
20712;DHT22;10517;50.742;4.224;2023-04-25T13:18:32;15.70;99.90
20712;DHT22;10517;50.742;4.224;2023-04-25T13:20:59;16.60;99.90
20712;DHT22;10517;50.742;4.224;2023-04-25T13:23:26;17.00;99.90
20712;DHT22;10517;50.742;4.224;2023-04-25T13:25:52;17.10;99.90
20712;DHT22;10517;50.742;4.224;2023-04-25T13:28:18;17.20;99.90
20712;DHT22;10517;50.742;4.224;2023-04-25T13:30:45;17.60;99.90
20712;DHT22;10517;50.742;4.224;2023-04-25T13:33:11;18.30;99.90
20712;DHT22;10517;50.742;4.224;2023-04-25T13:35:37;18.60;99.90
20712;DHT22;10517;50.742;4.224;2023-04-25T13:38:03;17.40;99.90
20712;DHT22;10517;50.742;4.224;2023-04-25T13:40:30;17.30;99.90
20712;DHT22;10517;50.742;4.224;2023-04-25T13:42:56;16.60;99.90
20712;DHT22;10517;50.742;4.224;2023-04-25T13:45:21;15.90;99.90
20712;DHT22;10517;50.742;4.224;2023-04-25T13:47:47;16.30;99.90
20712;DHT22;10517;50.742;4.224;2023-04-25T13:50:13;16.80;99.90
20712;DHT22;10517;50.742;4.224;2023-04-25T13:52:39;17.90;99.90
20712;DHT22;10517;50.742;4.224;2023-04-25T13:55:06;17.70;99.90
20712;DHT22;10517;50.742;4.224;2023-04-25T13:57:33;17.40;99.90
20712;DHT22;10517;50.742;4.224;2023-04-25T13:59:59;17.90;99.90
20712;DHT22;10517;50.742;4.224;2023-04-25T14:02:25;18.30;99.90
20712;DHT22;10517;50.742;4.224;2023-04-25T14:04:51;18.30;99.90
20712;DHT22;10517;50.742;4.224;2023-04-25T14:07:17;17.40;99.90
20712;DHT22;10517;50.742;4.224;2023-04-25T14:09:44;18.10;99.90
20712;DHT22;10517;50.742;4.224;2023-04-25T14:12:10;18.40;99.90
20712;DHT22;10517;50.742;4.224;2023-04-25T14:14:36;18.90;99.90
20712;DHT22;10517;50.742;4.224;2023-04-25T14:17:03;18.40;99.90
20712;DHT22;10517;50.742;4.224;2023-04-25T14:19:29;16.80;99.90
20712;DHT22;10517;50.742;4.224;2023-04-25T14:21:55;15.90;99.90
20712;DHT22;10517;50.742;4.224;2023-04-25T14:24:21;14.60;99.90
20712;DHT22;10517;50.742;4.224;2023-04-25T14:26:46;14.10;99.90
20712;DHT22;10517;50.742;4.224;2023-04-25T14:29:12;14.00;99.90
20712;DHT22;10517;50.742;4.224;2023-04-25T14:31:39;13.90;99.90
20712;DHT22;10517;50.742;4.224;2023-04-25T14:34:05;14.60;99.90
20712;DHT22;10517;50.742;4.224;2023-04-25T14:36:32;16.40;99.90
20712;DHT22;10517;50.742;4.224;2023-04-25T14:38:58;17.90;99.90
20712;DHT22;10517;50.742;4.224;2023-04-25T14:41:25;18.40;99.90
20712;DHT22;10517;50.742;4.224;2023-04-25T14:43:51;18.70;99.90
20712;DHT22;10517;50.742;4.224;2023-04-25T14:46:18;18.80;99.90
20712;DHT22;10517;50.742;4.224;2023-04-25T14:48:43;18.40;99.90
20712;DHT22;10517;50.742;4.224;2023-04-25T14:51:09;18.90;99.90
20712;DHT22;10517;50.742;4.224;2023-04-25T14:53:35;19.80;99.90
20712;DHT22;10517;50.742;4.224;2023-04-25T14:56:00;20.00;99.90
20712;DHT22;10517;50.742;4.224;2023-04-25T14:58:26;19.40;99.90
20712;DHT22;10517;50.742;4.224;2023-04-25T15:00:52;20.90;99.90
20712;DHT22;10517;50.742;4.224;2023-04-25T15:03:18;20.20;99.90
20712;DHT22;10517;50.742;4.224;2023-04-25T15:05:43;20.40;99.90
20712;DHT22;10517;50.742;4.224;2023-04-25T15:08:09;21.30;99.90
20712;DHT22;10517;50.742;4.224;2023-04-25T15:10:36;20.90;99.90
20712;DHT22;10517;50.742;4.224;2023-04-25T15:13:02;19.00;99.90
20712;DHT22;10517;50.742;4.224;2023-04-25T15:15:28;17.00;99.90
20712;DHT22;10517;50.742;4.224;2023-04-25T15:17:54;15.50;99.90
20712;DHT22;10517;50.742;4.224;2023-04-25T15:20:21;15.20;99.90
20712;DHT22;10517;50.742;4.224;2023-04-25T15:22:47;15.60;99.90
20712;DHT22;10517;50.742;4.224;2023-04-25T15:25:16;17.10;99.90
20712;DHT22;10517;50.742;4.224;2023-04-25T15:27:45;17.50;99.90
20712;DHT22;10517;50.742;4.224;2023-04-25T15:30:14;16.60;99.90
20712;DHT22;10517;50.742;4.224;2023-04-25T15:32:44;15.30;99.90
20712;DHT22;10517;50.742;4.224;2023-04-25T15:35:11;14.60;99.90
20712;DHT22;10517;50.742;4.224;2023-04-25T15:37:37;14.30;99.90
20712;DHT22;10517;50.742;4.224;2023-04-25T15:40:14;14.10;99.90
20712;DHT22;10517;50.742;4.224;2023-04-25T15:42:48;13.30;99.90
20712;DHT22;10517;50.742;4.224;2023-04-25T15:45:18;13.10;99.90
20712;DHT22;10517;50.742;4.224;2023-04-25T15:47:44;13.20;99.90
20712;DHT22;10517;50.742;4.224;2023-04-25T15:50:11;13.00;99.90
20712;DHT22;10517;50.742;4.224;2023-04-25T15:52:37;12.90;99.90
20712;DHT22;10517;50.742;4.224;2023-04-25T15:55:04;12.90;99.90